Time;durP1;ratioP1;P1;durP2;ratioP2;P2;SDS_P1;SDS_P2;PMS_P1;PMS_P2;Temp;Humidity;BMP_temperature;BMP_pressure;BME280_temperature;BME280_humidity;BME280_pressure;Samples;Min_cycle;Max_cycle;Signal;HPM_P1;HPM_P2
2021/08/17 00:01:11;;;;;;;9.77;4.50;;;;;;;20.17;81.41;98246.56;5022395;28;20209;-67
2021/08/17 00:03:38;;;;;;;12.40;5.40;;;;;;;20.56;79.92;98240.69;5020952;28;20299;-67
2021/08/17 00:06:09;;;;;;;13.23;4.77;;;;;;;21.04;76.91;98228.88;5024411;28;20206;-67
2021/08/17 00:08:36;;;;;;;10.30;4.60;;;;;;;21.27;75.16;98223.03;5019372;28;20206;-66
2021/08/17 00:11:03;;;;;;;10.77;4.77;;;;;;;21.32;76.55;98237.47;5023705;28;20210;-66
2021/08/17 00:13:31;;;;;;;9.60;4.90;;;;;;;21.37;74.95;98244.78;5021411;28;20713;-66
2021/08/17 00:15:58;;;;;;;10.47;5.20;;;;;;;20.97;76.81;98239.16;5008255;28;20226;-65
2021/08/17 00:18:25;;;;;;;11.57;5.53;;;;;;;21.10;75.31;98236.78;5020790;28;20199;-66
2021/08/17 00:20:52;;;;;;;9.43;5.07;;;;;;;20.92;76.94;98248.06;5018109;28;20219;-65
2021/08/17 00:23:21;;;;;;;11.37;5.27;;;;;;;20.86;77.89;98245.53;5022607;28;20205;-66
2021/08/17 00:25:48;;;;;;;14.37;5.73;;;;;;;21.17;76.66;98253.66;5023626;28;20202;-66
2021/08/17 00:28:16;;;;;;;9.60;5.30;;;;;;;21.43;75.91;98254.63;5019136;28;20224;-66
2021/08/17 00:30:43;;;;;;;14.60;5.30;;;;;;;21.24;76.69;98242.56;5022076;28;20230;-66
2021/08/17 00:33:10;;;;;;;11.43;5.73;;;;;;;21.27;74.60;98255.59;5019436;28;20202;-69
2021/08/17 00:35:38;;;;;;;12.70;6.17;;;;;;;20.99;76.29;98254.09;5027268;28;20249;-67
2021/08/17 00:38:05;;;;;;;10.50;5.70;;;;;;;21.26;77.13;98251.25;5020364;28;20588;-66
2021/08/17 00:40:35;;;;;;;12.90;5.57;;;;;;;21.70;74.98;98256.16;5025515;28;20227;-68
2021/08/17 00:43:02;;;;;;;13.60;5.90;;;;;;;21.54;74.30;98253.59;5017828;28;20233;-68
2021/08/17 00:45:30;;;;;;;10.77;5.80;;;;;;;21.63;74.83;98255.53;5021982;28;20203;-68
2021/08/17 00:47:58;;;;;;;14.57;6.20;;;;;;;21.58;74.38;98255.50;5024009;28;20208;-68
2021/08/17 00:50:27;;;;;;;11.47;6.00;;;;;;;21.62;74.81;98267.47;5024748;28;20622;-66
2021/08/17 00:52:55;;;;;;;13.53;5.90;;;;;;;21.55;74.64;98266.09;5021092;28;20646;-68
2021/08/17 00:55:23;;;;;;;12.73;5.87;;;;;;;21.68;75.48;98271.88;5023447;28;20233;-68
2021/08/17 00:57:51;;;;;;;13.03;5.60;;;;;;;21.53;73.97;98269.06;5022170;28;20207;-66
2021/08/17 01:00:19;;;;;;;13.60;5.80;;;;;;;21.50;73.51;98274.22;5012309;28;20237;-67
2021/08/17 01:02:47;;;;;;;11.07;5.67;;;;;;;21.21;75.30;98267.50;5021144;28;20683;-66
2021/08/17 01:05:16;;;;;;;11.27;5.87;;;;;;;21.09;74.51;98270.44;5020779;28;20217;-66
2021/08/17 01:07:43;;;;;;;8.93;5.57;;;;;;;21.20;74.94;98274.03;5022014;28;20222;-69
2021/08/17 01:10:12;;;;;;;9.90;5.43;;;;;;;20.99;71.78;98272.25;5020170;28;20234;-66
2021/08/17 01:12:40;;;;;;;9.90;4.97;;;;;;;19.90;78.93;98275.50;5021021;28;20213;-66
2021/08/17 01:15:11;;;;;;;10.37;5.33;;;;;;;20.58;72.50;98270.28;5016452;28;20231;-66
2021/08/17 01:17:38;;;;;;;11.77;5.73;;;;;;;20.24;75.63;98277.81;5023747;28;20291;-66
2021/08/17 01:20:08;;;;;;;12.63;5.40;;;;;;;20.33;76.25;98287.13;5016938;28;20600;-67
2021/08/17 01:22:35;;;;;;;9.73;5.33;;;;;;;20.63;73.69;98281.97;5023166;28;20216;-67
2021/08/17 01:25:03;;;;;;;10.70;4.60;;;;;;;20.52;74.21;98282.97;5018860;28;20206;-67
2021/08/17 01:27:31;;;;;;;11.57;5.67;;;;;;;19.64;76.68;98306.88;5021432;28;20216;-67
2021/08/17 01:29:59;;;;;;;13.13;5.33;;;;;;;19.72;74.75;98311.88;5013277;28;20241;-67
2021/08/17 01:32:26;;;;;;;10.07;4.77;;;;;;;20.28;73.26;98308.78;5015441;28;20205;-67
2021/08/17 01:34:54;;;;;;;11.23;5.20;;;;;;;20.50;72.95;98312.25;5016988;28;20244;-67
2021/08/17 01:37:21;;;;;;;9.80;4.97;;;;;;;20.50;71.92;98316.84;5032056;28;20666;-67
2021/08/17 01:39:59;;;;;;;10.13;4.63;;;;;;;20.75;70.72;98322.50;5019732;28;20612;-67
2021/08/17 01:42:27;;;;;;;13.40;5.53;;;;;;;19.86;72.99;98323.16;5031818;28;20206;-67
2021/08/17 01:44:56;;;;;;;10.47;4.63;;;;;;;20.09;72.33;98339.16;5024483;28;20220;-67
2021/08/17 01:47:23;;;;;;;10.20;4.93;;;;;;;20.60;69.67;98339.47;5031381;28;20209;-67
2021/08/17 01:49:51;;;;;;;12.27;4.97;;;;;;;20.66;68.83;98346.56;5023105;28;20227;-67
2021/08/17 01:52:18;;;;;;;14.90;5.30;;;;;;;20.05;71.19;98349.66;5031038;28;20199;-67
2021/08/17 01:54:46;;;;;;;11.90;5.40;;;;;;;19.35;71.97;98350.59;5019526;28;20232;-67
2021/08/17 01:57:13;;;;;;;9.43;4.80;;;;;;;20.13;71.55;98349.25;5030363;28;20208;-67
2021/08/17 01:59:40;;;;;;;10.67;4.80;;;;;;;20.04;71.25;98355.31;5026800;28;20243;-67
2021/08/17 02:02:09;;;;;;;10.60;4.50;;;;;;;20.33;70.24;98349.50;5030581;28;20295;-67
2021/08/17 02:04:37;;;;;;;11.80;5.23;;;;;;;20.46;71.34;98348.28;5023228;28;20285;-67
2021/08/17 02:07:05;;;;;;;9.07;4.63;;;;;;;20.24;69.04;98350.16;5029061;28;20284;-67
2021/08/17 02:09:32;;;;;;;11.07;5.07;;;;;;;20.34;69.54;98353.00;5025253;28;20701;-67
2021/08/17 02:11:59;;;;;;;13.00;4.80;;;;;;;20.26;69.17;98348.06;5028546;28;20200;-67
2021/08/17 02:14:27;;;;;;;9.77;4.50;;;;;;;19.74;72.66;98344.94;5021739;28;20205;-67
2021/08/17 02:16:55;;;;;;;16.20;5.20;;;;;;;20.14;71.41;98347.34;5028197;28;20204;-67
2021/08/17 02:19:23;;;;;;;8.13;4.37;;;;;;;20.11;70.03;98348.66;5029210;28;20233;-67
2021/08/17 02:21:50;;;;;;;11.63;4.80;;;;;;;20.13;69.51;98343.84;5027376;28;20209;-67
2021/08/17 02:24:18;;;;;;;14.00;4.80;;;;;;;20.08;68.35;98356.50;5027930;28;20199;-67
2021/08/17 02:26:45;;;;;;;8.80;4.27;;;;;;;20.45;68.89;98354.75;5026702;28;20215;-67
2021/08/17 02:29:13;;;;;;;12.83;4.83;;;;;;;20.07;69.67;98354.84;5026549;28;20251;-67
2021/08/17 02:31:40;;;;;;;9.23;4.43;;;;;;;20.51;67.60;98361.84;5021895;28;20204;-67
2021/08/17 02:34:07;;;;;;;11.03;4.63;;;;;;;20.40;68.00;98371.78;5023142;28;20205;-67
2021/08/17 02:36:36;;;;;;;9.97;4.77;;;;;;;20.43;67.04;98368.56;5024607;28;20219;-67
2021/08/17 02:39:04;;;;;;;10.07;4.67;;;;;;;20.27;66.80;98374.06;5024382;28;20255;-67
2021/08/17 02:41:31;;;;;;;8.47;4.63;;;;;;;20.44;67.25;98382.94;5023797;28;20214;-67
2021/08/17 02:43:58;;;;;;;7.73;4.87;;;;;;;20.28;67.75;98383.84;5022215;28;20208;-67
2021/08/17 02:46:26;;;;;;;13.23;5.33;;;;;;;20.22;68.28;98382.16;5023537;28;20201;-67
2021/08/17 02:48:53;;;;;;;9.37;4.43;;;;;;;19.97;69.13;98382.59;5023506;28;20228;-67
2021/08/17 02:51:20;;;;;;;9.97;4.53;;;;;;;19.81;70.05;98382.66;5022632;28;20200;-67
2021/08/17 02:53:49;;;;;;;8.23;4.90;;;;;;;19.60;71.60;98370.72;5023862;28;20227;-66
2021/08/17 02:56:16;;;;;;;10.60;4.77;;;;;;;19.60;72.16;98378.03;5021235;28;20305;-66
2021/08/17 02:58:44;;;;;;;9.80;4.67;;;;;;;19.18;73.34;98377.63;5022001;28;20215;-65
2021/08/17 03:01:12;;;;;;;8.60;4.63;;;;;;;19.49;72.47;98382.47;5025480;28;20696;-68
2021/08/17 03:03:39;;;;;;;12.00;4.70;;;;;;;20.25;69.57;98385.16;5020844;28;20211;-68
2021/08/17 03:06:06;;;;;;;9.77;4.83;;;;;;;19.50;72.08;98389.53;5024624;28;20197;-67
2021/08/17 03:08:34;;;;;;;10.43;5.43;;;;;;;20.05;71.35;98395.72;5015795;28;20209;-67
2021/08/17 03:11:04;;;;;;;10.13;5.00;;;;;;;20.20;68.76;98392.41;5022132;28;20211;-67
2021/08/17 03:13:32;;;;;;;11.57;5.10;;;;;;;19.59;70.35;98390.75;5011886;28;20208;-67
2021/08/17 03:15:59;;;;;;;10.87;4.53;;;;;;;19.72;70.58;98390.41;5018298;28;20272;-68
2021/08/17 03:18:27;;;;;;;12.13;5.80;;;;;;;19.74;69.76;98387.44;5022734;28;20799;-67
2021/08/17 03:20:57;;;;;;;8.70;4.23;;;;;;;20.07;68.56;98385.47;5017221;28;20202;-67
2021/08/17 03:23:26;;;;;;;11.87;5.03;;;;;;;19.95;66.45;98383.91;5021862;28;20207;-67
2021/08/17 03:25:54;;;;;;;12.00;4.70;;;;;;;19.58;69.08;98386.41;5021903;28;20213;-67
2021/08/17 03:28:22;;;;;;;13.23;5.43;;;;;;;19.48;69.06;98382.72;5019950;28;20877;-67
2021/08/17 03:30:50;;;;;;;10.33;4.77;;;;;;;19.17;70.75;98383.28;5026859;28;20233;-68
2021/08/17 03:33:17;;;;;;;12.13;4.80;;;;;;;19.51;70.24;98382.25;5016877;28;20296;-67
2021/08/17 03:35:45;;;;;;;9.43;4.50;;;;;;;19.73;68.05;98381.22;5024819;28;20235;-67
2021/08/17 03:38:12;;;;;;;12.87;5.30;;;;;;;19.66;70.61;98377.84;5018216;28;20729;-67
2021/08/17 03:40:40;;;;;;;10.70;5.27;;;;;;;19.26;69.09;98392.69;5021928;28;20309;-67
2021/08/17 03:43:07;;;;;;;10.07;5.20;;;;;;;19.47;71.58;98394.63;5019985;28;20214;-67
2021/08/17 03:45:36;;;;;;;9.00;4.47;;;;;;;19.53;71.22;98393.63;5022425;28;20669;-67
2021/08/17 03:48:04;;;;;;;8.73;4.80;;;;;;;19.74;68.56;98390.13;5016833;28;20215;-67
2021/08/17 03:50:31;;;;;;;11.57;4.80;;;;;;;19.40;70.38;98377.75;5027447;28;20584;-67
2021/08/17 03:52:59;;;;;;;9.70;5.43;;;;;;;19.31;71.71;98377.31;5016680;28;20210;-67
2021/08/17 03:55:27;;;;;;;9.93;4.40;;;;;;;19.19;70.93;98376.56;5021667;28;20238;-67
2021/08/17 03:57:54;;;;;;;10.93;4.67;;;;;;;19.20;70.25;98380.91;5021595;28;20202;-67
2021/08/17 04:00:25;;;;;;;10.70;4.40;;;;;;;19.05;70.58;98379.84;5021865;28;20692;-68
2021/08/17 04:02:53;;;;;;;13.33;4.97;;;;;;;19.04;71.61;98389.00;5023039;28;20207;-68
2021/08/17 04:05:21;;;;;;;10.97;5.00;;;;;;;18.63;72.45;98392.06;5015768;28;20204;-68
2021/08/17 04:07:48;;;;;;;11.10;4.80;;;;;;;19.00;71.97;98398.72;5021160;28;20222;-65
2021/08/17 04:10:15;;;;;;;11.83;5.20;;;;;;;18.76;70.94;98402.59;5019792;28;20227;-68
2021/08/17 04:12:43;;;;;;;14.90;4.43;;;;;;;18.88;72.18;98403.34;5020730;28;20398;-66
2021/08/17 04:15:11;;;;;;;9.50;4.73;;;;;;;19.26;71.17;98398.09;5011714;28;20231;-65
2021/08/17 04:17:39;;;;;;;11.80;5.17;;;;;;;18.77;69.33;98406.94;5022585;28;20207;-66
2021/08/17 04:20:09;;;;;;;10.33;4.50;;;;;;;19.23;68.69;98420.22;5014992;28;20600;-66
2021/08/17 04:22:37;;;;;;;9.20;4.00;;;;;;;18.77;70.04;98415.88;5021394;28;20215;-66
2021/08/17 04:25:05;;;;;;;9.57;4.90;;;;;;;19.45;68.33;98416.53;5022432;28;20315;-66
2021/08/17 04:27:33;;;;;;;9.90;4.27;;;;;;;18.46;71.53;98416.38;5022639;28;20289;-65
2021/08/17 04:30:00;;;;;;;8.40;4.43;;;;;;;19.13;68.95;98420.84;5021736;28;20238;-66
2021/08/17 04:32:27;;;;;;;8.97;4.07;;;;;;;19.15;69.25;98413.28;5014575;28;20662;-66
2021/08/17 04:34:55;;;;;;;8.87;4.87;;;;;;;19.52;69.52;98419.06;5019793;28;20203;-66
2021/08/17 04:37:23;;;;;;;9.60;4.50;;;;;;;19.25;68.30;98423.53;5023836;28;20198;-66
2021/08/17 04:39:51;;;;;;;8.93;4.43;;;;;;;19.53;68.27;98424.25;5018399;28;20229;-67
2021/08/17 04:42:18;;;;;;;8.03;4.37;;;;;;;18.91;71.75;98419.09;5024948;28;20202;-67
2021/08/17 04:44:45;;;;;;;9.27;4.63;;;;;;;19.28;70.26;98426.53;5016472;28;20579;-67
2021/08/17 04:47:12;;;;;;;8.17;4.47;;;;;;;19.22;68.75;98432.13;5029042;28;20662;-66
2021/08/17 04:49:40;;;;;;;10.67;4.43;;;;;;;19.32;69.25;98441.22;5014192;28;20712;-67
2021/08/17 04:52:07;;;;;;;9.27;4.43;;;;;;;19.29;70.08;98439.00;5023081;28;20202;-67
2021/08/17 04:54:38;;;;;;;10.27;4.87;;;;;;;19.17;69.96;98443.66;5020364;28;20204;-67
2021/08/17 04:57:05;;;;;;;11.17;5.17;;;;;;;18.72;70.28;98439.28;5017750;28;20314;-67
2021/08/17 04:59:32;;;;;;;8.30;4.90;;;;;;;19.22;69.64;98434.81;5024739;28;20288;-67
2021/08/17 05:02:00;;;;;;;9.50;4.80;;;;;;;19.45;69.43;98449.00;5020610;28;20208;-67
2021/08/17 05:04:27;;;;;;;12.30;4.90;;;;;;;19.51;68.60;98441.81;5020007;28;20206;-67
2021/08/17 05:06:54;;;;;;;9.00;4.97;;;;;;;19.69;70.07;98444.22;5015412;28;20661;-67
2021/08/17 05:09:22;;;;;;;10.07;4.90;;;;;;;19.60;70.16;98448.44;5017173;28;20229;-67
2021/08/17 05:11:51;;;;;;;9.57;4.23;;;;;;;19.16;69.99;98454.72;5020501;28;20816;-67
2021/08/17 05:14:18;;;;;;;12.27;4.77;;;;;;;19.09;71.40;98445.91;5022190;28;20576;-66
2021/08/17 05:16:45;;;;;;;13.17;5.00;;;;;;;19.22;70.36;98448.34;5021475;28;20222;-67
2021/08/17 05:19:13;;;;;;;9.33;4.37;;;;;;;19.20;70.32;98455.88;5021255;28;20266;-67
2021/08/17 05:21:40;;;;;;;11.03;4.37;;;;;;;19.60;69.26;98446.53;5020732;28;20679;-67
2021/08/17 05:24:07;;;;;;;9.77;4.67;;;;;;;19.21;70.80;98444.78;5019502;28;20565;-67
2021/08/17 05:26:35;;;;;;;8.60;4.20;;;;;;;19.62;69.33;98449.00;5021451;28;20206;-67
2021/08/17 05:29:03;;;;;;;9.03;4.37;;;;;;;20.16;68.46;98448.22;5018336;28;20246;-67
2021/08/17 05:31:31;;;;;;;6.40;3.73;;;;;;;20.30;68.31;98449.44;5015362;28;20213;-67
2021/08/17 05:33:58;;;;;;;8.87;4.33;;;;;;;20.09;67.58;98459.22;5015030;28;20287;-67
2021/08/17 05:36:25;;;;;;;9.43;4.23;;;;;;;19.76;68.92;98444.91;5023568;28;20245;-67
2021/08/17 05:38:53;;;;;;;8.23;3.83;;;;;;;20.54;67.94;98443.53;5021284;28;20234;-67
2021/08/17 05:41:20;;;;;;;6.77;3.80;;;;;;;20.44;65.50;98443.41;5016841;28;20773;-67
2021/08/17 05:43:47;;;;;;;9.80;4.43;;;;;;;20.27;66.02;98448.06;5019782;28;20203;-67
2021/08/17 05:46:16;;;;;;;6.03;4.10;;;;;;;20.64;68.54;98453.66;5021510;28;20570;-68
2021/08/17 05:48:43;;;;;;;7.27;3.50;;;;;;;20.02;64.92;98453.13;5017674;28;20202;-66
2021/08/17 05:51:11;;;;;;;6.47;3.43;;;;;;;20.54;65.76;98457.09;5021602;28;20212;-67
2021/08/17 05:53:38;;;;;;;8.97;3.60;;;;;;;20.99;63.32;98451.38;5017360;28;20206;-67
2021/08/17 05:56:05;;;;;;;7.77;3.93;;;;;;;20.55;66.45;98442.47;5021350;28;20221;-67
2021/08/17 05:58:33;;;;;;;6.70;4.00;;;;;;;20.71;62.99;98454.28;5016424;28;20211;-68
2021/08/17 06:01:00;;;;;;;6.63;3.90;;;;;;;20.12;64.68;98450.56;5017995;28;20591;-68
2021/08/17 06:03:29;;;;;;;5.23;3.30;;;;;;;20.04;63.20;98461.00;5009420;28;20210;-68
2021/08/17 06:05:59;;;;;;;6.63;3.43;;;;;;;21.33;63.94;98444.66;5027579;28;20643;-68
2021/08/17 06:08:27;;;;;;;6.73;3.57;;;;;;;20.28;64.27;98443.47;5013992;28;20294;-68
2021/08/17 06:10:54;;;;;;;7.63;3.67;;;;;;;20.72;61.80;98453.22;5023522;28;20226;-68
2021/08/17 06:13:23;;;;;;;6.67;3.40;;;;;;;20.77;62.82;98456.00;5016742;28;20266;-68
2021/08/17 06:15:51;;;;;;;8.13;3.80;;;;;;;21.24;63.87;98446.19;5020574;28;20231;-66
2021/08/17 06:18:18;;;;;;;5.87;3.33;;;;;;;21.20;60.81;98456.75;5018403;28;20207;-67
2021/08/17 06:20:47;;;;;;;6.50;3.27;;;;;;;21.08;62.08;98453.34;5016376;28;20228;-67
2021/08/17 06:23:14;;;;;;;4.77;3.40;;;;;;;21.10;63.63;98448.50;5021794;28;20214;-67
2021/08/17 06:25:41;;;;;;;7.67;3.73;;;;;;;21.57;61.75;98454.06;5024334;28;20208;-68
2021/08/17 06:28:10;;;;;;;5.43;3.70;;;;;;;21.69;57.51;98460.16;5016635;28;20199;-68
2021/08/17 06:30:37;;;;;;;6.07;3.37;;;;;;;21.69;57.13;98469.13;5024434;28;20259;-68
2021/08/17 06:33:05;;;;;;;6.60;3.47;;;;;;;22.54;57.48;98471.56;5014902;28;20213;-69
2021/08/17 06:35:32;;;;;;;7.07;3.77;;;;;;;22.10;56.54;98468.31;5025133;28;20198;-69
2021/08/17 06:38:01;;;;;;;8.70;3.57;;;;;;;22.44;58.39;98469.59;5018528;28;20715;-69
2021/08/17 06:40:28;;;;;;;7.07;3.70;;;;;;;22.47;59.14;98470.97;5024248;28;20222;-69
2021/08/17 06:42:56;;;;;;;9.53;3.80;;;;;;;22.50;55.26;98482.16;5026008;28;20202;-69
2021/08/17 06:45:23;;;;;;;6.83;3.30;;;;;;;22.23;55.01;98488.78;5017245;28;20215;-69
2021/08/17 06:47:52;;;;;;;8.47;3.97;;;;;;;22.24;57.49;98474.91;5021897;28;20213;-69
2021/08/17 06:50:20;;;;;;;6.90;3.73;;;;;;;22.70;55.75;98475.97;5021093;28;20225;-68
2021/08/17 06:52:47;;;;;;;5.70;3.63;;;;;;;23.45;51.59;98481.59;5021800;28;20213;-68
2021/08/17 06:55:17;;;;;;;7.27;3.67;;;;;;;22.92;51.91;98479.31;5019251;28;20209;-69
2021/08/17 06:57:44;;;;;;;11.63;3.73;;;;;;;22.51;54.65;98481.09;5017837;28;20233;-70
2021/08/17 07:00:12;;;;;;;7.67;4.37;;;;;;;23.33;51.13;98483.78;5024695;28;20221;-69
2021/08/17 07:02:40;;;;;;;6.53;4.07;;;;;;;22.74;53.80;98485.22;5018894;28;20199;-69
2021/08/17 07:05:08;;;;;;;6.63;3.70;;;;;;;22.78;53.82;98489.06;5024280;28;20208;-69
2021/08/17 07:07:36;;;;;;;8.53;4.13;;;;;;;23.50;53.50;98481.59;5018452;28;20195;-69
2021/08/17 07:10:03;;;;;;;11.43;4.30;;;;;;;22.90;50.86;98498.63;5023452;28;20321;-69
2021/08/17 07:12:32;;;;;;;5.83;3.80;;;;;;;22.93;53.01;98498.09;5018847;28;20674;-68
2021/08/17 07:14:59;;;;;;;7.33;4.10;;;;;;;23.57;52.63;98503.97;5021639;28;20217;-69
2021/08/17 07:17:26;;;;;;;7.33;4.37;;;;;;;23.03;49.65;98510.91;5021115;28;20234;-69
2021/08/17 07:19:53;;;;;;;9.13;4.07;;;;;;;22.96;51.50;98505.72;5024463;28;20239;-69
2021/08/17 07:22:21;;;;;;;7.57;4.00;;;;;;;23.55;51.71;98500.69;5018821;28;20675;-69
2021/08/17 07:24:48;;;;;;;8.17;4.37;;;;;;;23.16;50.02;98502.25;5023627;28;20220;-69
2021/08/17 07:27:15;;;;;;;8.43;4.23;;;;;;;22.84;50.70;98498.88;5027611;28;20199;-70
2021/08/17 07:29:44;;;;;;;8.93;4.30;;;;;;;24.04;49.24;98502.63;5023207;28;20238;-69
2021/08/17 07:32:11;;;;;;;11.87;4.47;;;;;;;23.64;48.50;98504.50;5021445;28;20198;-70
2021/08/17 07:34:39;;;;;;;7.47;4.23;;;;;;;23.90;46.85;98509.72;5021426;28;20203;-70
2021/08/17 07:37:06;;;;;;;7.93;4.33;;;;;;;23.65;47.47;98508.84;5024881;28;20218;-67
2021/08/17 07:39:33;;;;;;;7.03;3.93;;;;;;;24.50;43.79;98519.69;5023499;28;20223;-70
2021/08/17 07:42:00;;;;;;;7.77;4.23;;;;;;;24.16;44.96;98519.50;5024648;28;20207;-69
2021/08/17 07:44:30;;;;;;;6.07;3.60;;;;;;;24.59;43.59;98518.88;5024927;28;20212;-70
2021/08/17 07:46:59;;;;;;;7.30;4.23;;;;;;;24.37;43.12;98520.28;5021187;28;20200;-69
2021/08/17 07:49:26;;;;;;;8.20;4.20;;;;;;;24.31;43.02;98532.28;5019057;28;20236;-69
2021/08/17 07:51:54;;;;;;;7.07;4.30;;;;;;;24.29;41.91;98526.28;5014493;28;20218;-69
2021/08/17 07:54:22;;;;;;;7.47;3.83;;;;;;;25.13;40.80;98522.44;5023333;28;20569;-70
2021/08/17 07:56:49;;;;;;;7.53;4.00;;;;;;;24.32;40.10;98531.22;5033503;28;20227;-70
2021/08/17 07:59:17;;;;;;;7.27;3.80;;;;;;;25.04;38.92;98540.50;5034108;28;20265;-68
2021/08/17 08:01:44;;;;;;;6.97;3.67;;;;;;;25.30;39.04;98533.88;5034091;28;20211;-70
2021/08/17 08:04:13;;;;;;;7.23;4.00;;;;;;;26.04;37.35;98544.56;5023515;28;20201;-70
2021/08/17 08:06:40;;;;;;;7.50;4.23;;;;;;;24.59;39.54;98531.72;5013919;28;20205;-71
2021/08/17 08:09:08;;;;;;;6.43;3.60;;;;;;;24.62;39.17;98529.22;5025491;28;20215;-71
2021/08/17 08:11:35;;;;;;;8.13;4.00;;;;;;;24.28;39.55;98532.84;5033821;28;20700;-71
2021/08/17 08:14:03;;;;;;;7.43;4.00;;;;;;;24.53;39.11;98532.78;5025161;28;20245;-69
2021/08/17 08:16:30;;;;;;;7.27;3.70;;;;;;;23.23;39.46;98532.78;4994539;28;20233;-69
2021/08/17 08:18:57;;;;;;;7.07;4.03;;;;;;;24.58;38.25;98535.50;5006494;28;20708;-69
2021/08/17 08:21:26;;;;;;;7.80;3.90;;;;;;;24.54;37.15;98537.16;5022262;28;20220;-70
2021/08/17 08:24:05;;;;;;;8.53;4.60;;;;;;;25.37;36.92;98531.63;5015513;28;20227;-69
2021/08/17 08:26:33;;;;;;;7.23;3.77;;;;;;;26.03;35.96;98537.44;5016428;28;20207;-69
2021/08/17 08:29:00;;;;;;;7.90;4.13;;;;;;;25.25;34.38;98561.22;5013490;28;20248;-69
2021/08/17 08:31:27;;;;;;;7.33;4.00;;;;;;;25.12;35.36;98544.56;5013499;28;20307;-70
2021/08/17 08:33:55;;;;;;;6.87;4.07;;;;;;;25.15;35.15;98552.22;5020569;28;20202;-70
2021/08/17 08:36:22;;;;;;;7.23;4.10;;;;;;;24.74;36.25;98548.03;5019734;28;20217;-71
2021/08/17 08:38:51;;;;;;;7.07;3.80;;;;;;;24.74;35.03;98545.31;5022674;28;20231;-71
2021/08/17 08:41:19;;;;;;;6.33;4.10;;;;;;;25.43;33.90;98544.16;5028424;28;20204;-70
2021/08/17 08:43:48;;;;;;;7.43;4.80;;;;;;;25.89;33.01;98550.94;5023840;28;20292;-70
2021/08/17 08:46:17;;;;;;;6.67;3.97;;;;;;;25.69;34.09;98545.63;5027554;28;20199;-70
2021/08/17 08:48:47;;;;;;;6.77;4.43;;;;;;;25.56;33.90;98559.94;5025004;28;20203;-70
2021/08/17 08:51:15;;;;;;;8.83;3.80;;;;;;;25.30;33.91;98566.66;5029323;28;20206;-69
2021/08/17 08:53:42;;;;;;;6.27;3.87;;;;;;;24.47;34.99;98564.72;5018740;28;20213;-68
2021/08/17 08:56:11;;;;;;;6.67;3.97;;;;;;;24.98;35.11;98558.03;5028117;28;20203;-69
2021/08/17 08:58:38;;;;;;;6.57;3.97;;;;;;;25.27;36.19;98556.28;5023972;28;20589;-70
2021/08/17 09:01:06;;;;;;;7.80;4.50;;;;;;;25.53;33.73;98557.75;5028026;28;20221;-69
2021/08/17 09:03:43;;;;;;;5.97;3.87;;;;;;;25.61;32.79;98561.81;5019351;28;20205;-69
2021/08/17 09:06:18;;;;;;;6.47;3.63;;;;;;;25.20;34.32;98558.50;5020282;28;20213;-70
2021/08/17 09:08:46;;;;;;;6.53;3.87;;;;;;;25.40;33.38;98557.59;5020781;28;20298;-69
2021/08/17 09:11:20;;;;;;;6.47;3.97;;;;;;;26.61;31.69;98555.53;5028849;28;20553;-69
2021/08/17 09:13:48;;;;;;;5.73;3.80;;;;;;;25.91;32.70;98546.03;5022901;28;20207;-69
2021/08/17 09:16:26;;;;;;;4.97;3.23;;;;;;;26.36;31.72;98539.31;5027130;28;20206;-70
2021/08/17 09:18:53;;;;;;;6.07;3.53;;;;;;;27.02;31.04;98549.28;5018918;28;20229;-69
2021/08/17 09:21:34;;;;;;;5.13;3.40;;;;;;;26.42;30.92;98552.69;5026567;28;20212;-69
2021/08/17 09:24:14;;;;;;;7.23;3.80;;;;;;;26.53;30.32;98562.41;5022376;28;20214;-68
2021/08/17 09:26:47;;;;;;;9.27;4.70;;;;;;;26.66;30.23;98556.25;5026668;28;20297;-70
2021/08/17 09:29:23;;;;;;;6.90;3.53;;;;;;;26.59;31.73;98554.97;5021546;28;20743;-70
2021/08/17 09:31:52;;;;;;;8.73;3.80;;;;;;;27.08;29.85;98559.06;5018201;28;20214;-69
2021/08/17 09:34:20;;;;;;;6.70;4.10;;;;;;;25.07;32.27;98547.34;5023153;28;20202;-71
2021/08/17 09:36:47;;;;;;;5.23;3.50;;;;;;;26.47;30.23;98538.94;5024683;28;20273;-70
2021/08/17 09:39:33;;;;;;;4.73;2.90;;;;;;;26.41;30.05;98548.28;5014044;28;20219;-70
2021/08/17 09:42:29;;;;;;;5.40;3.20;;;;;;;26.74;29.11;98549.31;5018674;28;20211;-68
2021/08/17 09:45:12;;;;;;;5.20;3.40;;;;;;;26.09;28.15;98555.47;5019245;28;20219;-68
2021/08/17 09:47:41;;;;;;;3.67;2.70;;;;;;;24.77;29.26;98559.22;5023847;28;20199;-68
2021/08/17 09:50:24;;;;;;;5.70;3.43;;;;;;;25.62;29.45;98552.50;5018098;28;20257;-67
2021/08/17 09:53:04;;;;;;;7.40;3.57;;;;;;;26.30;28.36;98552.22;5023565;28;20214;-67
2021/08/17 09:55:32;;;;;;;4.50;2.80;;;;;;;27.11;26.96;98566.69;5012066;28;20207;-69
2021/08/17 09:58:17;;;;;;;5.00;3.10;;;;;;;27.70;27.12;98546.94;5026940;28;20229;-68
2021/08/17 10:00:45;;;;;;;5.17;3.10;;;;;;;27.45;27.24;98542.66;5024385;28;20840;-67
2021/08/17 10:03:14;;;;;;;4.50;2.90;;;;;;;27.34;26.70;98548.59;5028797;28;20205;-66
2021/08/17 10:05:42;;;;;;;5.57;3.63;;;;;;;26.08;28.49;98546.44;5027223;28;20206;-69
2021/08/17 10:08:11;;;;;;;4.53;3.03;;;;;;;26.85;27.63;98550.88;5034718;28;20204;-68
2021/08/17 10:10:39;;;;;;;5.60;3.40;;;;;;;26.35;28.33;98541.22;5027779;28;20226;-67
2021/08/17 10:13:11;;;;;;;5.40;3.50;;;;;;;26.89;27.66;98527.22;5028724;28;20209;-69
2021/08/17 10:15:38;;;;;;;5.37;3.40;;;;;;;26.66;28.51;98531.63;5024563;28;20203;-69
2021/08/17 10:18:07;;;;;;;5.57;3.37;;;;;;;27.26;26.72;98541.03;5026583;28;20232;-66
2021/08/17 10:20:34;;;;;;;4.30;3.03;;;;;;;26.99;27.92;98532.59;5021899;28;20224;-68
2021/08/17 10:23:02;;;;;;;3.63;2.90;;;;;;;27.29;27.57;98522.06;5028678;28;20209;-69
2021/08/17 10:25:44;;;;;;;4.63;3.17;;;;;;;27.17;26.91;98509.88;5024736;28;20209;-68
2021/08/17 10:28:27;;;;;;;5.80;3.10;;;;;;;25.79;28.34;98509.19;5014084;28;20321;-68
2021/08/17 10:30:54;;;;;;;5.17;3.50;;;;;;;26.03;28.75;98526.50;5027670;28;20211;-67
2021/08/17 10:33:37;;;;;;;7.20;3.50;;;;;;;27.01;28.14;98513.94;5028097;28;20210;-68
2021/08/17 10:36:05;;;;;;;4.13;2.60;;;;;;;28.03;26.86;98519.25;5016210;28;20579;-69
2021/08/17 10:38:49;;;;;;;4.63;3.03;;;;;;;25.73;29.73;98491.16;5021020;28;20223;-68
2021/08/17 10:41:26;;;;;;;5.70;3.20;;;;;;;26.91;28.76;98495.69;5016910;28;20211;-68
2021/08/17 10:44:16;;;;;;;5.60;3.20;;;;;;;26.99;28.57;98506.00;5029520;28;20222;-70
2021/08/17 10:46:49;;;;;;;6.70;3.47;;;;;;;26.51;28.60;98509.84;5024723;28;20199;-70
2021/08/17 10:49:47;;;;;;;6.10;3.53;;;;;;;25.53;30.12;98513.22;5019011;28;20267;-69
2021/08/17 10:52:33;;;;;;;5.97;3.53;;;;;;;25.27;30.63;98476.22;5010251;28;20202;-68
2021/08/17 10:55:31;;;;;;;5.80;3.40;;;;;;;27.45;28.15;98503.44;5018613;28;20215;-68
2021/08/17 10:58:00;;;;;;;6.13;3.40;;;;;;;26.57;28.62;98508.75;5025481;28;20714;-68
2021/08/17 11:00:57;;;;;;;5.13;2.93;;;;;;;27.27;28.25;98499.59;5023848;28;20226;-70
2021/08/17 11:03:47;;;;;;;5.60;2.77;;;;;;;28.16;25.98;98493.78;5015665;28;20214;-69
2021/08/17 11:06:39;;;;;;;4.13;2.77;;;;;;;28.09;24.76;98501.59;5020345;28;20664;-67
2021/08/17 11:09:07;;;;;;;5.53;2.70;;;;;;;27.19;25.05;98497.53;5014191;28;20298;-69
2021/08/17 11:11:34;;;;;;;5.30;3.00;;;;;;;27.61;25.69;98488.41;5025073;28;20202;-70
2021/08/17 11:14:03;;;;;;;6.33;3.27;;;;;;;26.98;26.74;98482.47;5024947;28;20210;-69
2021/08/17 11:16:33;;;;;;;4.03;2.80;;;;;;;27.92;25.10;98493.09;5026858;28;20712;-69
2021/08/17 11:19:01;;;;;;;5.43;2.93;;;;;;;27.37;26.23;98472.03;5013473;28;20992;-70
2021/08/17 11:21:37;;;;;;;5.07;2.73;;;;;;;26.86;25.92;98479.31;5026348;28;20204;-67
2021/08/17 11:24:10;;;;;;;3.37;2.20;;;;;;;27.85;24.75;98476.22;5014128;28;20210;-69
2021/08/17 11:26:38;;;;;;;3.33;2.43;;;;;;;26.37;26.28;98465.13;5022602;28;20214;-68
2021/08/17 11:29:05;;;;;;;5.63;2.80;;;;;;;26.11;26.47;98468.44;5025089;28;20605;-67
2021/08/17 11:31:45;;;;;;;4.13;2.60;;;;;;;26.25;27.02;98461.16;5018397;28;20214;-68
2021/08/17 11:34:17;;;;;;;4.27;2.50;;;;;;;25.93;26.49;98471.88;5017565;28;20222;-69
2021/08/17 11:36:54;;;;;;;4.03;2.33;;;;;;;26.93;25.76;98474.31;5022503;28;20215;-69
2021/08/17 11:39:23;;;;;;;6.93;2.57;;;;;;;25.77;26.34;98468.44;5019492;28;20237;-67
2021/08/17 11:41:51;;;;;;;4.43;2.30;;;;;;;26.54;25.54;98467.38;5022509;28;20585;-69